createdAt,value
2022-11-30T06:16:35.590Z,37.65
2022-11-30T06:19:07.836Z,38.42
2022-11-30T06:21:40.132Z,40.10
2022-11-30T06:24:12.225Z,39.05
2022-11-30T06:26:44.180Z,39.45
2022-11-30T06:29:16.181Z,41.42
2022-11-30T06:31:48.172Z,41.58
2022-11-30T06:34:20.116Z,39.88
2022-11-30T06:36:52.567Z,39.75
2022-11-30T06:39:49.980Z,39.70
2022-11-30T06:42:17.040Z,39.63
2022-11-30T06:44:49.615Z,40.30
2022-11-30T06:47:21.710Z,40.77
2022-11-30T06:49:54.093Z,40.75
2022-11-30T06:52:26.036Z,40.40
2022-11-30T06:54:58.000Z,39.85
2022-11-30T06:57:30.298Z,39.92
2022-11-30T07:00:02.436Z,40.03
2022-11-30T07:02:34.831Z,36.10
2022-11-30T07:05:07.064Z,40.65
2022-11-30T07:07:39.156Z,37.15
2022-11-30T07:10:14.732Z,36.65
2022-11-30T07:12:50.176Z,38.90
2022-11-30T07:15:22.216Z,38.75
2022-11-30T07:17:54.184Z,39.88
2022-11-30T07:20:26.200Z,39.67
2022-11-30T07:23:18.382Z,38.40
2022-11-30T07:26:07.173Z,36.50
2022-11-30T07:28:41.025Z,36.40
2022-11-30T07:31:27.826Z,39.00
2022-11-30T07:34:05.032Z,37.47
2022-11-30T07:36:37.617Z,36.67
2022-11-30T07:39:09.599Z,38.63
2022-11-30T07:41:42.541Z,36.15
2022-11-30T07:44:15.375Z,38.15
2022-11-30T07:46:47.343Z,40.55
2022-11-30T07:49:20.386Z,37.40
2022-11-30T07:51:52.323Z,36.10
2022-11-30T07:54:24.302Z,38.08
2022-11-30T07:56:56.289Z,36.42
2022-11-30T07:59:28.289Z,37.20
2022-11-30T14:25:21.588Z,30.15
2022-11-30T14:27:57.360Z,33.67
2022-11-30T14:30:33.476Z,32.03
2022-11-30T14:33:25.932Z,32.67
2022-11-30T14:35:59.556Z,31.20
2022-11-30T14:41:03.775Z,30.60
2022-11-30T14:43:36.011Z,29.90
2022-11-30T14:46:18.228Z,32.63
2022-11-30T14:49:12.440Z,32.17
2022-11-30T14:51:49.352Z,31.17
2022-11-30T14:54:52.851Z,32.15
2022-11-30T14:57:32.261Z,31.00
2022-11-30T15:00:06.179Z,34.65
2022-11-30T15:02:39.233Z,33.80
2022-11-30T15:05:23.800Z,35.75
2022-11-30T15:07:56.732Z,33.50
2022-11-30T15:10:33.125Z,32.78
2022-11-30T15:13:05.442Z,33.60
2022-11-30T15:15:41.590Z,33.05
2022-11-30T15:18:16.584Z,30.48
2022-11-30T15:21:11.065Z,31.75
2022-11-30T15:23:49.418Z,33.00
2022-11-30T15:26:32.220Z,30.75
2022-11-30T15:29:10.208Z,32.00
2022-11-30T15:31:45.551Z,31.05
2022-11-30T15:34:54.888Z,29.33
2022-11-30T15:37:30.164Z,30.88
2022-11-30T15:40:05.842Z,30.63
2022-11-30T15:42:40.635Z,32.63
2022-11-30T15:45:35.484Z,30.17
2022-11-30T15:48:31.402Z,33.17
2022-11-30T15:51:03.887Z,32.55
2022-11-30T15:53:50.148Z,29.30
2022-11-30T15:59:07.662Z,30.35
2022-11-30T16:02:02.839Z,29.15
2022-11-30T16:04:56.785Z,30.23
2022-11-30T16:10:14.519Z,28.45
2022-11-30T16:15:29.802Z,29.50
2022-11-30T16:18:18.066Z,32.05
2022-11-30T16:20:53.254Z,30.13
2022-11-30T16:23:26.391Z,29.55
2022-11-30T16:25:59.377Z,30.30
2022-11-30T16:28:31.398Z,28.05
2022-11-30T16:31:03.532Z,28.17
2022-11-30T16:33:35.788Z,29.27
2022-11-30T16:36:10.164Z,28.75
2022-11-30T16:38:42.524Z,28.55
2022-11-30T16:41:16.291Z,27.55
2022-11-30T16:43:51.165Z,29.17
2022-11-30T16:46:25.756Z,27.77
2022-11-30T16:48:58.027Z,28.75
2022-11-30T16:51:34.682Z,27.95
2022-11-30T16:54:06.727Z,29.40
2022-11-30T16:56:38.889Z,28.08
2022-11-30T16:59:16.372Z,29.58
2022-11-30T17:01:53.484Z,28.33
2022-11-30T17:04:29.712Z,29.05
2022-11-30T17:07:03.019Z,30.58
2022-11-30T17:12:09.742Z,26.95
2022-11-30T17:14:42.105Z,28.05
2022-11-30T17:17:14.167Z,28.23
2022-11-30T17:19:46.540Z,28.00
2022-11-30T17:22:18.602Z,28.80
2022-11-30T17:24:50.774Z,28.48
2022-11-30T17:27:23.154Z,29.13
2022-11-30T17:29:55.494Z,28.77
2022-11-30T17:32:27.881Z,27.90
2022-11-30T17:35:00.030Z,29.63
2022-11-30T17:37:32.126Z,29.13
2022-11-30T17:40:05.204Z,28.95
2022-11-30T17:42:37.207Z,29.50
2022-11-30T17:45:10.051Z,27.63
2022-11-30T17:47:42.115Z,30.03
2022-11-30T17:50:15.096Z,30.88
2022-11-30T17:52:47.171Z,30.50
2022-11-30T17:55:19.288Z,29.67
2022-11-30T17:57:51.691Z,29.33
2022-11-30T18:00:24.379Z,30.77
2022-11-30T18:02:56.580Z,30.02
2022-11-30T18:05:28.784Z,31.52
2022-11-30T18:08:01.134Z,31.38
2022-11-30T18:10:33.472Z,30.45
2022-11-30T18:13:05.566Z,29.58
2022-11-30T18:15:37.776Z,30.15
2022-11-30T18:18:09.780Z,32.10
2022-11-30T18:20:42.163Z,31.92
2022-11-30T18:23:14.228Z,31.88
2022-11-30T18:25:46.473Z,31.27
2022-11-30T18:28:18.725Z,32.80
2022-11-30T18:30:54.027Z,30.55
2022-11-30T18:33:26.311Z,31.30
2022-11-30T18:35:59.403Z,32.08
2022-11-30T18:38:37.264Z,29.75
2022-11-30T18:41:12.163Z,33.00
2022-11-30T18:43:44.400Z,30.02
2022-11-30T18:46:16.785Z,31.98
2022-11-30T18:48:50.591Z,31.70
2022-11-30T18:51:25.516Z,31.60
2022-11-30T18:54:00.472Z,31.33
2022-11-30T18:56:35.243Z,32.90
2022-11-30T18:59:15.753Z,30.55
2022-11-30T19:01:48.159Z,34.05
2022-11-30T19:04:20.305Z,32.58
2022-11-30T19:06:52.512Z,32.40
2022-11-30T19:09:24.674Z,32.55
2022-11-30T19:11:58.164Z,33.60
2022-11-30T19:14:30.660Z,32.88
2022-11-30T19:17:03.051Z,32.50
2022-11-30T19:19:35.553Z,32.28
2022-11-30T19:22:08.062Z,33.03
2022-11-30T19:24:40.300Z,34.17
2022-11-30T19:27:12.324Z,34.70
2022-11-30T19:29:44.574Z,34.03
2022-11-30T19:32:16.849Z,30.88
2022-11-30T19:34:49.758Z,34.35
2022-11-30T19:37:22.238Z,34.53
2022-11-30T19:39:54.347Z,35.65
2022-11-30T19:42:26.541Z,35.05
2022-11-30T19:44:58.810Z,33.42
2022-11-30T19:47:30.958Z,34.70
2022-11-30T19:50:04.583Z,34.67
2022-11-30T19:52:37.240Z,35.58
2022-11-30T19:55:10.046Z,34.63
2022-11-30T19:57:42.133Z,35.90
2022-11-30T20:00:14.787Z,36.28
